createdAt,value
2019-02-20T00:00:50.444Z,8.43
2019-02-20T00:03:18.639Z,8.39
2019-02-20T00:05:46.714Z,8.33
2019-02-20T00:08:14.808Z,8.28
2019-02-20T00:10:42.853Z,8.19
2019-02-20T00:13:10.910Z,8.11
2019-02-20T00:15:39.322Z,8.05
2019-02-20T00:18:07.656Z,8.01
2019-02-20T00:20:35.991Z,7.97
2019-02-20T00:23:04.304Z,7.94
2019-02-20T00:25:32.364Z,7.91
2019-02-20T00:28:00.718Z,7.86
2019-02-20T00:30:28.794Z,7.82
2019-02-20T00:32:56.873Z,7.79
2019-02-20T00:35:25.197Z,7.74
2019-02-20T00:37:53.557Z,7.71
2019-02-20T00:40:21.755Z,7.66
2019-02-20T00:42:50.277Z,7.61
2019-02-20T00:45:36.559Z,7.57
2019-02-20T00:48:27.220Z,7.51
2019-02-20T00:51:03.660Z,7.46
2019-02-20T00:53:36.553Z,7.39
2019-02-20T00:56:05.806Z,7.37
2019-02-20T00:58:33.943Z,7.35
2019-02-20T01:01:02.017Z,7.32
2019-02-20T01:03:30.335Z,7.30
2019-02-20T01:05:58.388Z,7.27
2019-02-20T01:08:26.512Z,7.24
2019-02-20T01:10:54.608Z,7.21
2019-02-20T01:13:22.670Z,7.19
2019-02-20T01:15:50.753Z,7.17
2019-02-20T01:18:19.109Z,7.15
2019-02-20T01:20:47.141Z,7.13
2019-02-20T01:23:15.315Z,7.09
2019-02-20T01:25:43.357Z,7.05
2019-02-20T01:28:11.486Z,7.05
2019-02-20T01:30:39.534Z,7.02
2019-02-20T01:33:07.611Z,7.02
2019-02-20T01:35:35.657Z,7.00
2019-02-20T01:38:03.736Z,6.98
2019-02-20T01:40:31.821Z,6.97
2019-02-20T01:42:59.888Z,6.95
2019-02-20T01:45:27.962Z,6.94
2019-02-20T01:47:56.046Z,6.94
2019-02-20T01:50:24.182Z,6.96
2019-02-20T01:52:52.259Z,6.97
2019-02-20T01:55:20.323Z,6.97
2019-02-20T01:57:48.372Z,6.99
2019-02-20T02:00:17.143Z,7.02
2019-02-20T02:02:45.212Z,7.05
2019-02-20T02:05:15.763Z,7.08
2019-02-20T02:07:43.326Z,7.12
2019-02-20T02:10:11.400Z,7.15
2019-02-20T02:12:39.500Z,7.17
2019-02-20T02:15:07.654Z,7.19
2019-02-20T02:17:35.883Z,7.22
2019-02-20T02:20:04.160Z,7.25
2019-02-20T02:22:32.209Z,7.28
2019-02-20T02:25:00.290Z,7.30
2019-02-20T02:27:28.352Z,7.33
2019-02-20T02:29:56.423Z,7.33
2019-02-20T02:32:24.480Z,7.34
2019-02-20T02:34:52.579Z,7.33
2019-02-20T02:37:20.913Z,7.35
2019-02-20T02:39:49.237Z,7.37
2019-02-20T02:42:17.270Z,7.41
2019-02-20T02:44:45.317Z,7.45
2019-02-20T02:47:13.347Z,7.46
2019-02-20T02:49:41.416Z,7.49
2019-02-20T02:52:09.459Z,7.51
2019-02-20T02:54:38.679Z,7.53
2019-02-20T02:57:06.680Z,7.56
2019-02-20T02:59:34.719Z,7.61
2019-02-20T03:02:03.203Z,7.63
2019-02-20T03:04:31.278Z,7.65
2019-02-20T03:06:59.638Z,7.69
2019-02-20T03:09:27.745Z,7.74
2019-02-20T03:11:55.757Z,7.77
2019-02-20T03:14:24.388Z,7.81
2019-02-20T03:16:52.607Z,7.85
2019-02-20T03:19:20.652Z,7.86
2019-02-20T03:21:48.747Z,7.88
2019-02-20T03:24:17.872Z,7.91
2019-02-20T03:26:46.270Z,7.94
2019-02-20T03:29:14.353Z,7.96
2019-02-20T03:31:43.479Z,7.98
2019-02-20T03:34:11.736Z,7.99
2019-02-20T03:36:40.892Z,8.01
2019-02-20T03:39:09.061Z,8.01
2019-02-20T03:41:37.086Z,8.03
2019-02-20T03:44:05.523Z,8.03
2019-02-20T03:46:35.187Z,8.03
2019-02-20T03:49:03.362Z,8.02
2019-02-20T03:51:31.740Z,7.96
2019-02-20T03:53:59.791Z,7.94
2019-02-20T03:56:28.946Z,7.92
2019-02-20T03:58:57.380Z,7.92
2019-02-20T04:01:25.436Z,7.92
2019-02-20T04:03:53.506Z,7.94
2019-02-20T04:06:21.611Z,7.94
2019-02-20T04:08:49.655Z,7.96
2019-02-20T04:11:17.682Z,7.97
2019-02-20T04:13:46.023Z,7.98
2019-02-20T04:16:14.537Z,7.97
2019-02-20T04:18:43.389Z,7.98
2019-02-20T04:21:11.470Z,8.00
2019-02-20T04:23:39.560Z,7.99
2019-02-20T04:26:09.836Z,7.99
2019-02-20T04:28:37.717Z,8.00
2019-02-20T04:31:06.350Z,8.01
2019-02-20T04:33:34.457Z,8.03
2019-02-20T04:36:02.460Z,8.03
2019-02-20T04:38:30.551Z,8.01
2019-02-20T04:40:58.645Z,8.02
2019-02-20T04:43:27.245Z,8.01
2019-02-20T04:45:55.403Z,8.01
2019-02-20T04:48:23.545Z,7.97
2019-02-20T04:50:51.846Z,7.96
2019-02-20T04:53:19.961Z,7.97
2019-02-20T04:55:47.983Z,7.95
2019-02-20T04:58:20.785Z,7.93
2019-02-20T05:00:48.861Z,7.90
2019-02-20T05:03:16.951Z,7.89
2019-02-20T05:05:45.384Z,7.87
2019-02-20T05:08:13.431Z,7.87
2019-02-20T05:10:41.548Z,7.90
2019-02-20T05:13:09.579Z,7.90
2019-02-20T05:15:37.599Z,7.91
2019-02-20T05:18:05.941Z,7.93
2019-02-20T05:20:34.043Z,7.94
2019-02-20T05:23:02.066Z,7.95
2019-02-20T05:25:30.123Z,7.96
2019-02-20T05:27:58.154Z,7.96
2019-02-20T05:30:26.866Z,7.97
2019-02-20T05:32:54.953Z,7.98
2019-02-20T05:35:23.263Z,7.98
2019-02-20T05:37:51.323Z,7.98
2019-02-20T05:40:19.342Z,7.99
2019-02-20T05:42:48.330Z,7.96
2019-02-20T05:45:16.512Z,7.94
2019-02-20T05:47:44.840Z,7.92
2019-02-20T05:50:12.905Z,7.94
2019-02-20T05:52:40.983Z,7.95
2019-02-20T05:55:09.021Z,7.97
2019-02-20T05:57:37.078Z,7.99
2019-02-20T06:00:05.851Z,8.02
2019-02-20T06:02:33.915Z,8.03
2019-02-20T06:05:02.029Z,8.05
2019-02-20T06:07:30.339Z,8.05
2019-02-20T06:09:58.702Z,8.04
2019-02-20T06:12:26.767Z,8.06
2019-02-20T06:14:54.807Z,8.03
2019-02-20T06:17:22.841Z,8.00
2019-02-20T06:19:50.864Z,7.97
2019-02-20T06:22:18.958Z,7.92
2019-02-20T06:24:46.999Z,7.87
2019-02-20T06:27:15.290Z,7.80
2019-02-20T06:29:43.380Z,7.74
2019-02-20T06:32:11.446Z,7.66
2019-02-20T06:34:39.993Z,7.62
2019-02-20T06:37:08.377Z,7.56
2019-02-20T06:39:36.503Z,7.52
2019-02-20T06:42:04.577Z,7.49
2019-02-20T06:44:33.003Z,7.49
2019-02-20T06:47:01.101Z,7.49
2019-02-20T06:49:29.501Z,7.49
2019-02-20T06:51:57.648Z,7.47
2019-02-20T06:54:26.257Z,7.45
2019-02-20T06:56:54.319Z,7.42
2019-02-20T06:59:22.392Z,7.42
2019-02-20T07:01:51.584Z,7.39
2019-02-20T07:04:19.922Z,7.38
2019-02-20T07:07:19.751Z,7.37
2019-02-20T07:10:35.455Z,7.35
2019-02-20T07:13:29.507Z,7.32
2019-02-20T07:16:51.483Z,7.30
2019-02-20T07:20:04.674Z,7.27
2019-02-20T07:23:17.139Z,7.26
2019-02-20T07:26:34.224Z,7.23
2019-02-20T07:30:03.341Z,7.21
2019-02-20T07:32:33.591Z,7.22
2019-02-20T07:35:01.640Z,7.31
2019-02-20T07:37:29.677Z,7.42
2019-02-20T07:39:57.709Z,7.58
2019-02-20T07:42:26.380Z,7.76
2019-02-20T07:44:54.463Z,7.99
2019-02-20T07:47:22.490Z,8.24
2019-02-20T07:49:50.943Z,8.44
2019-02-20T07:52:20.028Z,8.61
2019-02-20T07:54:48.108Z,8.75
2019-02-20T07:57:16.452Z,8.90
2019-02-20T07:59:44.497Z,9.01
2019-02-20T08:02:12.623Z,9.11
2019-02-20T08:04:42.147Z,9.21
2019-02-20T08:07:10.320Z,9.39
2019-02-20T08:09:38.549Z,9.60
2019-02-20T08:12:06.993Z,9.87
2019-02-20T08:14:35.456Z,10.17
2019-02-20T08:17:03.712Z,10.48
2019-02-20T08:19:32.897Z,10.75
2019-02-20T08:22:01.001Z,11.07
2019-02-20T08:24:29.060Z,11.36
2019-02-20T08:26:57.500Z,11.66
2019-02-20T08:29:25.591Z,11.92
2019-02-20T08:31:54.059Z,12.15
2019-02-20T08:34:22.175Z,12.41
2019-02-20T08:36:50.321Z,12.65
2019-02-20T08:39:18.376Z,12.92
2019-02-20T08:41:46.412Z,13.20
2019-02-20T08:44:14.601Z,13.52
2019-02-20T08:46:42.630Z,13.86
2019-02-20T08:49:10.546Z,14.22
2019-02-20T08:51:38.683Z,14.65
2019-02-20T08:54:06.690Z,15.12
2019-02-20T08:56:34.707Z,15.57
2019-02-20T08:59:02.759Z,16.02
2019-02-20T09:01:30.829Z,16.45
2019-02-20T09:03:58.969Z,16.86
2019-02-20T09:06:27.001Z,17.23
2019-02-20T09:08:55.141Z,17.54
2019-02-20T09:11:23.187Z,17.85
2019-02-20T09:13:51.494Z,18.17
2019-02-20T09:16:20.941Z,18.52
2019-02-20T09:18:49.135Z,18.88
2019-02-20T09:21:17.238Z,19.22
2019-02-20T09:23:45.565Z,19.55
2019-02-20T09:26:13.572Z,19.86
2019-02-20T09:28:41.714Z,20.10
2019-02-20T09:31:09.844Z,20.37
2019-02-20T09:33:37.878Z,20.64
2019-02-20T09:36:05.944Z,20.95
2019-02-20T09:38:33.932Z,21.29
2019-02-20T09:41:01.967Z,21.68
2019-02-20T09:43:30.132Z,22.03
2019-02-20T09:45:58.195Z,22.34
2019-02-20T09:48:26.498Z,22.58
2019-02-20T09:50:54.801Z,22.82
2019-02-20T09:53:22.811Z,23.05
2019-02-20T09:55:51.828Z,23.23
2019-02-20T09:58:20.802Z,23.38
2019-02-20T10:00:49.199Z,23.48
2019-02-20T10:03:17.280Z,23.51
2019-02-20T10:05:46.489Z,23.49
2019-02-20T10:08:14.526Z,23.46
2019-02-20T10:10:42.604Z,23.39
2019-02-20T10:13:11.593Z,23.26
2019-02-20T10:15:39.664Z,23.12
2019-02-20T10:18:07.773Z,22.99
2019-02-20T10:20:37.114Z,22.83
2019-02-20T10:23:05.145Z,22.67
2019-02-20T10:25:33.226Z,22.49
2019-02-20T10:28:01.480Z,22.31
2019-02-20T10:30:29.821Z,22.14
2019-02-20T10:32:57.867Z,21.95
2019-02-20T10:35:25.915Z,21.65
2019-02-20T10:37:53.952Z,21.30
2019-02-20T10:40:22.054Z,21.05
2019-02-20T10:42:50.121Z,20.91
2019-02-20T10:45:18.152Z,20.82
2019-02-20T10:47:46.161Z,20.77
2019-02-20T10:50:14.673Z,20.71
2019-02-20T10:52:43.127Z,20.67
2019-02-20T10:55:11.491Z,20.67
2019-02-20T10:57:40.534Z,20.64
2019-02-20T11:00:23.527Z,20.67
2019-02-20T11:02:47.551Z,20.71
2019-02-20T11:05:15.699Z,20.74
2019-02-20T11:07:43.903Z,20.81
2019-02-20T11:10:11.968Z,20.91
2019-02-20T11:12:40.381Z,21.02
2019-02-20T11:15:08.632Z,21.15
2019-02-20T11:17:37.506Z,21.26
2019-02-20T11:20:06.207Z,21.38
2019-02-20T11:22:34.234Z,21.39
2019-02-20T11:25:02.264Z,21.38
2019-02-20T11:27:30.475Z,21.31
2019-02-20T11:29:58.650Z,21.26
2019-02-20T11:32:26.690Z,21.31
2019-02-20T11:34:54.741Z,21.41
2019-02-20T11:37:23.070Z,21.52
2019-02-20T11:39:53.991Z,21.56
2019-02-20T11:42:22.342Z,21.59
2019-02-20T11:44:50.648Z,21.59
2019-02-20T11:47:18.846Z,21.55
2019-02-20T11:49:46.888Z,21.54
2019-02-20T11:52:14.988Z,21.57
2019-02-20T11:54:43.349Z,21.65
2019-02-20T11:57:11.681Z,21.75
2019-02-20T11:59:39.699Z,21.83
2019-02-20T12:02:07.753Z,21.92
2019-02-20T12:04:36.164Z,22.10
2019-02-20T12:07:04.215Z,22.37
2019-02-20T12:09:32.552Z,22.70
2019-02-20T12:12:01.130Z,23.06
2019-02-20T12:14:29.188Z,23.36
2019-02-20T12:16:57.214Z,23.62
2019-02-20T12:19:25.701Z,23.85
2019-02-20T12:21:59.786Z,24.03
2019-02-20T12:24:27.806Z,24.19
2019-02-20T12:26:55.847Z,24.32
2019-02-20T12:29:23.885Z,24.45
2019-02-20T12:31:52.881Z,24.55
2019-02-20T12:34:21.433Z,24.59
2019-02-20T12:36:49.525Z,24.62
2019-02-20T12:39:18.574Z,24.67
2019-02-20T12:41:46.904Z,24.73
2019-02-20T12:44:14.975Z,24.81
2019-02-20T12:46:43.320Z,24.96
2019-02-20T12:49:11.527Z,25.13
2019-02-20T12:51:39.642Z,25.30
2019-02-20T12:54:07.741Z,25.52
2019-02-20T12:56:43.484Z,25.76
2019-02-20T12:59:07.824Z,25.88
2019-02-20T13:01:35.682Z,25.97
2019-02-20T13:04:03.863Z,26.09
2019-02-20T13:06:32.191Z,26.27
2019-02-20T13:09:00.209Z,26.45
2019-02-20T13:11:28.631Z,26.59
2019-02-20T13:13:57.140Z,26.78
2019-02-20T13:16:25.180Z,26.88
2019-02-20T13:18:53.942Z,27.00
2019-02-20T13:21:21.988Z,27.07
2019-02-20T13:23:50.363Z,27.11
2019-02-20T13:26:18.709Z,27.11
2019-02-20T13:28:46.732Z,27.15
2019-02-20T13:31:14.675Z,27.23
2019-02-20T13:33:42.962Z,27.35
2019-02-20T13:36:11.011Z,27.41
2019-02-20T13:38:39.046Z,27.28
2019-02-20T13:41:07.478Z,27.17
2019-02-20T13:43:35.486Z,27.13
2019-02-20T13:46:03.617Z,27.11
2019-02-20T13:48:31.632Z,27.09
2019-02-20T13:50:59.745Z,26.71
2019-02-20T13:53:27.741Z,26.43
2019-02-20T13:55:55.776Z,26.10
2019-02-20T13:58:24.109Z,25.98
2019-02-20T14:00:52.138Z,25.79
2019-02-20T14:03:20.168Z,25.74
2019-02-20T14:05:48.223Z,25.73
2019-02-20T14:08:16.298Z,25.67
2019-02-20T14:10:44.418Z,25.65
2019-02-20T14:13:12.420Z,25.44
2019-02-20T14:15:40.762Z,25.40
2019-02-20T14:18:08.870Z,25.41
2019-02-20T14:20:36.899Z,25.48
2019-02-20T14:23:06.911Z,25.48
2019-02-20T14:25:36.402Z,25.46
2019-02-20T14:28:04.757Z,25.53
2019-02-20T14:31:25.017Z,25.54
2019-02-20T14:34:02.025Z,25.63
2019-02-20T14:36:30.431Z,25.77
2019-02-20T14:38:58.801Z,25.85
2019-02-20T14:41:27.160Z,25.86
2019-02-20T14:43:55.236Z,25.89
2019-02-20T14:46:24.148Z,26.00
2019-02-20T14:48:52.193Z,26.07
2019-02-20T14:51:20.286Z,26.15
2019-02-20T14:53:48.508Z,26.24
2019-02-20T14:56:17.163Z,26.33
2019-02-20T14:58:45.902Z,26.39
2019-02-20T15:01:23.092Z,26.38
2019-02-20T15:03:51.485Z,26.31
2019-02-20T15:06:19.805Z,26.27
2019-02-20T15:08:49.189Z,26.28
2019-02-20T15:11:18.672Z,26.28
2019-02-20T15:13:55.424Z,26.24
2019-02-20T15:16:25.731Z,26.19
2019-02-20T15:18:56.220Z,26.09
2019-02-20T15:21:25.250Z,26.00
2019-02-20T15:24:00.938Z,25.91
2019-02-20T15:26:29.984Z,25.84
2019-02-20T15:28:58.571Z,25.76
2019-02-20T15:31:33.749Z,25.71
2019-02-20T15:33:58.182Z,25.62
2019-02-20T15:36:29.057Z,25.55
2019-02-20T15:39:04.554Z,25.47
2019-02-20T15:41:34.718Z,25.37
2019-02-20T15:44:02.866Z,25.24
2019-02-20T15:46:31.190Z,25.11
2019-02-20T15:48:59.290Z,24.95
2019-02-20T15:51:27.394Z,24.79
2019-02-20T15:53:55.743Z,24.62
2019-02-20T15:56:24.567Z,24.46
2019-02-20T15:58:52.732Z,24.25
2019-02-20T16:01:20.772Z,24.01
2019-02-20T16:03:48.921Z,23.79
2019-02-20T16:06:17.006Z,23.55
2019-02-20T16:08:45.110Z,23.31
2019-02-20T16:11:13.245Z,23.09
2019-02-20T16:13:41.425Z,22.92
2019-02-20T16:16:09.435Z,22.75
2019-02-20T16:18:37.845Z,22.59
2019-02-20T16:21:06.081Z,22.42
2019-02-20T16:23:34.180Z,22.24
2019-02-20T16:26:02.632Z,22.07
2019-02-20T16:28:33.873Z,21.89
2019-02-20T16:31:00.981Z,21.65
2019-02-20T16:33:29.290Z,21.41
2019-02-20T16:35:57.544Z,21.20
2019-02-20T16:38:26.051Z,20.98
2019-02-20T16:40:54.153Z,20.81
2019-02-20T16:43:22.307Z,20.65
2019-02-20T16:45:50.417Z,20.52
2019-02-20T16:48:18.528Z,20.37
2019-02-20T16:50:46.623Z,20.25
2019-02-20T16:53:14.660Z,20.09
2019-02-20T16:55:43.882Z,19.95
2019-02-20T16:58:12.196Z,19.80
2019-02-20T17:00:40.608Z,19.62
2019-02-20T17:03:09.057Z,19.46
2019-02-20T17:05:37.407Z,19.30
2019-02-20T17:08:05.523Z,19.15
2019-02-20T17:10:33.906Z,18.98
2019-02-20T17:13:03.390Z,18.82
2019-02-20T17:15:32.155Z,18.67
2019-02-20T17:18:00.660Z,18.50
2019-02-20T17:20:28.759Z,18.34
2019-02-20T17:22:56.866Z,18.20
2019-02-20T17:25:25.624Z,18.04
2019-02-20T17:27:53.656Z,17.90
2019-02-20T17:30:21.823Z,17.74
2019-02-20T17:32:51.060Z,17.60
2019-02-20T17:35:19.448Z,17.45
2019-02-20T17:37:47.465Z,17.30
2019-02-20T17:40:15.788Z,17.07
2019-02-20T17:42:44.622Z,16.85
2019-02-20T17:45:13.853Z,16.65
2019-02-20T17:47:42.874Z,16.49
2019-02-20T17:50:13.322Z,16.35
2019-02-20T17:52:41.382Z,16.23
2019-02-20T17:55:09.847Z,16.09
2019-02-20T17:57:37.994Z,15.98
2019-02-20T18:00:09.288Z,15.87
2019-02-20T18:02:39.044Z,15.76
2019-02-20T18:05:07.135Z,15.66
2019-02-20T18:07:35.555Z,15.55
2019-02-20T18:10:04.337Z,15.45
2019-02-20T18:12:32.801Z,15.29
2019-02-20T18:15:01.453Z,15.15
2019-02-20T18:17:29.845Z,15.04
2019-02-20T18:19:58.037Z,14.93
2019-02-20T18:22:26.118Z,14.83
2019-02-20T18:24:54.207Z,14.75
2019-02-20T18:27:22.226Z,14.64
2019-02-20T18:29:50.413Z,14.53
2019-02-20T18:32:18.480Z,14.37
2019-02-20T18:34:46.646Z,14.21
2019-02-20T18:37:14.868Z,14.07
2019-02-20T18:39:43.019Z,13.92
2019-02-20T18:42:11.209Z,13.76
2019-02-20T18:44:39.309Z,13.66
2019-02-20T18:47:07.721Z,13.58
2019-02-20T18:49:36.264Z,13.49
2019-02-20T18:52:04.303Z,13.41
2019-02-20T18:54:32.386Z,13.32
2019-02-20T18:57:00.555Z,13.22
2019-02-20T18:59:28.623Z,13.12
2019-02-20T19:01:56.667Z,13.01
2019-02-20T19:04:25.582Z,12.90
2019-02-20T19:06:53.769Z,12.81
2019-02-20T19:09:28.209Z,12.74
2019-02-20T19:13:04.680Z,12.67
2019-02-20T19:16:13.480Z,12.58
2019-02-20T19:19:32.990Z,12.44
2019-02-20T19:22:46.345Z,12.32
2019-02-20T19:26:20.414Z,12.21
2019-02-20T19:29:48.892Z,12.10
2019-02-20T19:32:46.436Z,11.97
2019-02-20T19:36:30.450Z,11.88
2019-02-20T19:39:39.311Z,11.81
2019-02-20T19:42:54.266Z,11.75
2019-02-20T19:46:41.706Z,11.68
2019-02-20T19:50:17.927Z,11.59
2019-02-20T19:53:28.615Z,11.48
2019-02-20T19:57:13.945Z,11.38
2019-02-20T20:00:36.154Z,11.29
2019-02-20T20:04:19.144Z,11.19
2019-02-20T20:07:49.030Z,11.12
2019-02-20T20:11:01.460Z,11.02
2019-02-20T20:13:58.827Z,10.94
2019-02-20T20:17:26.598Z,10.91
2019-02-20T20:21:05.770Z,10.87
2019-02-20T20:24:36.911Z,10.81
2019-02-20T20:28:25.217Z,10.74
2019-02-20T20:31:41.316Z,10.69
2019-02-20T20:34:57.771Z,10.63
2019-02-20T20:37:52.692Z,10.57
2019-02-20T20:41:33.650Z,10.53
2019-02-20T20:44:33.024Z,10.52
2019-02-20T20:47:52.230Z,10.47
2019-02-20T20:51:20.391Z,10.45
2019-02-20T20:54:52.586Z,10.41
2019-02-20T20:58:39.977Z,10.34
2019-02-20T21:01:55.088Z,10.24
2019-02-20T21:05:28.834Z,10.20
2019-02-20T21:08:55.003Z,10.19
2019-02-20T21:12:35.016Z,10.13
2019-02-20T21:15:54.273Z,10.09
2019-02-20T21:19:21.471Z,10.04
2019-02-20T21:22:37.293Z,9.97
2019-02-20T21:26:24.399Z,9.90
2019-02-20T21:29:33.610Z,9.88
2019-02-20T21:33:08.221Z,9.82
2019-02-20T21:36:34.202Z,9.82
2019-02-20T21:39:26.415Z,9.80
2019-02-20T21:42:36.013Z,9.80
2019-02-20T21:45:56.522Z,9.78
2019-02-20T21:49:02.843Z,9.73
2019-02-20T21:52:33.173Z,9.68
2019-02-20T21:55:49.031Z,9.63
2019-02-20T21:58:58.126Z,9.56
2019-02-20T22:02:13.730Z,9.52
2019-02-20T22:05:45.904Z,9.49
2019-02-20T22:09:12.113Z,9.45
2019-02-20T22:12:36.601Z,9.42
2019-02-20T22:15:50.501Z,9.40
2019-02-20T22:19:40.565Z,9.38
2019-02-20T22:22:52.760Z,9.35
2019-02-20T22:26:23.309Z,9.30
2019-02-20T22:29:50.196Z,9.28
2019-02-20T22:33:24.398Z,9.25
2019-02-20T22:36:19.398Z,9.24
2019-02-20T22:39:38.375Z,9.21
2019-02-20T22:42:55.923Z,9.19
2019-02-20T22:46:12.759Z,9.20
2019-02-20T22:49:20.033Z,9.17
2019-02-20T22:52:22.539Z,9.14
2019-02-20T22:55:55.904Z,9.11
2019-02-20T22:59:00.851Z,9.07
2019-02-20T23:02:41.603Z,9.02
2019-02-20T23:06:14.992Z,9.01
2019-02-20T23:09:30.179Z,8.99
2019-02-20T23:12:30.936Z,8.95
2019-02-20T23:14:59.132Z,8.94
2019-02-20T23:17:27.454Z,8.91
2019-02-20T23:19:55.615Z,8.92
2019-02-20T23:22:23.848Z,8.93
2019-02-20T23:24:51.921Z,8.93
2019-02-20T23:27:19.980Z,8.90
2019-02-20T23:29:48.130Z,8.88
2019-02-20T23:32:17.258Z,8.88
2019-02-20T23:34:45.294Z,8.89
2019-02-20T23:37:13.335Z,8.87
2019-02-20T23:39:41.396Z,8.86
2019-02-20T23:42:09.445Z,8.87
2019-02-20T23:44:37.495Z,8.84
2019-02-20T23:47:05.569Z,8.82
2019-02-20T23:49:33.639Z,8.78
2019-02-20T23:52:02.058Z,8.75
2019-02-20T23:54:30.196Z,8.76
2019-02-20T23:56:58.238Z,8.74
2019-02-20T23:59:26.309Z,8.72
